Time;durP1;ratioP1;P1;durP2;ratioP2;P2;SDS_P1;SDS_P2;PMS_P1;PMS_P2;Temp;Humidity;BMP_temperature;BMP_pressure;BME280_temperature;BME280_humidity;BME280_pressure;Samples;Min_cycle;Max_cycle;Signal;HPM_P1;HPM_P2
2023/09/01 00:02:30;0.00;0.00;0.62;0.00;0.00;0.62;3.20;2.57;;;27.40;26.80;;;;;;2267536;61;20452;-53
2023/09/01 00:05:23;0.00;0.00;0.62;0.00;0.00;0.62;3.73;3.03;;;27.40;26.80;;;;;;2265702;61;20490;-56
2023/09/01 00:08:08;0.00;0.00;0.62;0.00;0.00;0.62;3.40;3.03;;;27.40;26.80;;;;;;2267147;61;20379;-52
2023/09/01 00:10:53;0.00;0.00;0.62;0.00;0.00;0.62;2.70;2.07;;;27.40;26.80;;;;;;2266618;61;20502;-55
2023/09/01 00:13:38;0.00;0.00;0.62;0.00;0.00;0.62;3.17;2.53;;;27.40;26.80;;;;;;2266970;61;20364;-57
2023/09/01 00:16:22;0.00;0.00;0.62;0.00;0.00;0.62;2.80;2.47;;;27.40;26.80;;;;;;2267763;61;20441;-57
2023/09/01 00:19:08;0.00;0.00;0.62;0.00;0.00;0.62;3.50;2.70;;;27.30;26.80;;;;;;2267179;61;20376;-57
2023/09/01 00:21:53;0.00;0.00;0.62;0.00;0.00;0.62;2.53;2.10;;;27.30;26.70;;;;;;2267530;61;20390;-56
2023/09/01 00:24:38;0.00;0.00;0.62;0.00;0.00;0.62;3.07;2.27;;;27.30;26.80;;;;;;2266441;61;20398;-56
2023/09/01 00:27:23;0.00;0.00;0.62;0.00;0.00;0.62;3.33;2.10;;;27.30;26.80;;;;;;2267171;61;20468;-56
2023/09/01 00:30:09;0.00;0.00;0.62;0.00;0.00;0.62;2.97;2.10;;;27.30;26.80;;;;;;2267214;61;20434;-57
2023/09/01 00:32:53;0.00;0.00;0.62;0.00;0.00;0.62;3.30;2.50;;;27.30;26.80;;;;;;2266667;61;20427;-56
2023/09/01 00:35:40;0.00;0.00;0.62;0.00;0.00;0.62;2.90;2.10;;;27.30;26.80;;;;;;2263666;61;20396;-56
2023/09/01 00:38:25;0.00;0.00;0.62;0.00;0.00;0.62;2.77;2.30;;;27.30;26.80;;;;;;2267046;61;20403;-57
2023/09/01 00:41:09;0.00;0.00;0.62;0.00;0.00;0.62;2.30;1.93;;;27.30;26.80;;;;;;2266728;61;20414;-56
2023/09/01 00:43:54;0.00;0.00;0.62;0.00;0.00;0.62;2.30;2.00;;;27.30;26.80;;;;;;2266250;61;20448;-62
2023/09/01 00:46:39;0.00;0.00;0.62;0.00;0.00;0.62;2.20;1.90;;;27.30;26.80;;;;;;2266770;61;20364;-57
2023/09/01 00:49:24;0.00;0.00;0.62;0.00;0.00;0.62;2.40;2.00;;;27.30;26.80;;;;;;2266984;61;20391;-54
2023/09/01 00:52:10;0.00;0.00;0.62;0.00;0.00;0.62;2.17;1.70;;;27.30;26.80;;;;;;2267318;61;20410;-56
2023/09/01 00:54:54;0.00;0.00;0.62;0.00;0.00;0.62;2.13;1.60;;;27.30;26.80;;;;;;2266419;61;20384;-56
2023/09/01 00:57:39;0.00;0.00;0.62;0.00;0.00;0.62;2.53;2.13;;;27.30;27.30;;;;;;2266403;61;20364;-56
2023/09/01 01:00:24;0.00;0.00;0.62;0.00;0.00;0.62;2.30;1.90;;;27.30;26.80;;;;;;2267243;61;20360;-55
2023/09/01 01:03:09;0.00;0.00;0.62;0.00;0.00;0.62;2.93;2.20;;;27.30;26.80;;;;;;2267014;61;20383;-52
2023/09/01 01:06:10;0.00;0.00;0.62;0.00;0.00;0.62;2.13;1.40;;;27.20;26.80;;;;;;2267282;61;20869;-55
2023/09/01 01:09:08;0.00;0.00;0.62;0.00;0.00;0.62;2.80;1.93;;;27.20;26.80;;;;;;2266763;61;20384;-57
2023/09/01 01:12:01;0.00;0.00;0.62;0.00;0.00;0.62;2.33;1.40;;;27.20;26.80;;;;;;2266960;61;20382;-58
2023/09/01 01:14:49;0.00;0.00;0.62;0.00;0.00;0.62;2.77;1.47;;;27.20;26.80;;;;;;2266623;61;20376;-58
2023/09/01 01:17:36;0.00;0.00;0.62;0.00;0.00;0.62;2.80;1.80;;;27.20;26.80;;;;;;2266471;61;20396;-52
2023/09/01 01:20:34;0.00;0.00;0.62;0.00;0.00;0.62;3.00;1.50;;;27.20;26.80;;;;;;2266500;61;20406;-55
2023/09/01 01:23:22;0.00;0.00;0.62;0.00;0.00;0.62;3.13;1.80;;;27.20;26.80;;;;;;2266571;61;20499;-53
2023/09/01 01:26:08;0.00;0.00;0.62;0.00;0.00;0.62;2.10;1.50;;;27.20;26.80;;;;;;2266845;61;20897;-56
2023/09/01 01:28:52;0.00;0.00;0.62;0.00;0.00;0.62;2.30;1.47;;;27.20;26.80;;;;;;2266611;61;20392;-53
2023/09/01 01:31:37;0.00;0.00;0.62;0.00;0.00;0.62;2.17;1.77;;;27.20;26.80;;;;;;2266618;61;20911;-54
2023/09/01 01:34:32;0.00;0.00;0.62;0.00;0.00;0.62;2.73;1.50;;;27.20;26.80;;;;;;2265888;61;20435;-58
2023/09/01 01:37:27;0.00;0.00;0.62;0.00;0.00;0.62;2.80;1.87;;;27.20;26.80;;;;;;2281053;57;20422;-54
2023/09/01 01:40:13;0.00;0.00;0.62;0.00;0.00;0.62;2.20;1.73;;;27.20;26.80;;;;;;2266868;61;20894;-58
2023/09/01 01:43:03;0.00;0.00;0.62;0.00;0.00;0.62;2.50;1.90;;;27.20;26.80;;;;;;2266859;61;20360;-53
2023/09/01 01:45:48;0.00;0.00;0.62;0.00;0.00;0.62;2.10;1.53;;;27.20;26.80;;;;;;2266643;61;20883;-55
2023/09/01 01:48:36;0.00;0.00;0.62;0.00;0.00;0.62;2.20;1.60;;;27.20;26.80;;;;;;2262615;61;20784;-55
2023/09/01 01:51:21;0.00;0.00;0.62;0.00;0.00;0.62;2.00;1.60;;;27.20;26.80;;;;;;2261937;61;20420;-59
2023/09/01 01:54:05;0.00;0.00;0.62;0.00;0.00;0.62;1.90;1.60;;;27.20;26.80;;;;;;2262338;61;20408;-57
2023/09/01 01:56:52;0.00;0.00;0.62;0.00;0.00;0.62;2.17;1.50;;;27.20;26.80;;;;;;2259597;61;20917;-55
2023/09/01 01:59:37;0.00;0.00;0.62;0.00;0.00;0.62;1.90;1.33;;;27.10;26.80;;;;;;2262570;61;20421;-57
2023/09/01 02:02:21;0.00;0.00;0.62;0.00;0.00;0.62;1.97;1.70;;;27.10;26.70;;;;;;2263966;61;20345;-57
2023/09/01 02:05:07;0.00;0.00;0.62;0.00;0.00;0.62;2.43;1.93;;;27.10;26.80;;;;;;2264440;61;20463;-52
2023/09/01 02:07:52;0.00;0.00;0.62;0.00;0.00;0.62;2.83;1.80;;;27.10;26.80;;;;;;2264095;61;20379;-56
2023/09/01 02:10:37;0.00;0.00;0.62;0.00;0.00;0.62;2.40;1.60;;;27.10;26.70;;;;;;2264698;61;20901;-58
2023/09/01 02:13:23;0.00;0.00;0.62;0.00;0.00;0.62;2.20;1.77;;;27.10;26.80;;;;;;2264210;61;20360;-53
2023/09/01 02:16:08;0.00;0.00;0.62;0.00;0.00;0.62;2.30;1.80;;;27.10;26.70;;;;;;2264317;61;20430;-54
2023/09/01 02:18:53;0.00;0.00;0.62;0.00;0.00;0.62;2.47;1.57;;;27.10;26.70;;;;;;2264136;61;20399;-55
2023/09/01 02:21:37;0.00;0.00;0.62;0.00;0.00;0.62;2.00;1.60;;;27.10;26.70;;;;;;2264836;61;20363;-56
2023/09/01 02:24:23;0.00;0.00;0.62;0.00;0.00;0.62;2.13;1.50;;;27.10;26.80;;;;;;2264035;61;20875;-55
2023/09/01 02:27:07;0.00;0.00;0.62;0.00;0.00;0.62;1.83;1.53;;;27.10;26.80;;;;;;2264308;61;20833;-51
2023/09/01 02:29:53;0.00;0.00;0.62;0.00;0.00;0.62;2.13;1.50;;;27.10;26.80;;;;;;2264433;61;20522;-56
2023/09/01 02:32:39;0.00;0.00;0.62;0.00;0.00;0.62;2.23;1.70;;;27.10;26.80;;;;;;2264035;61;20897;-53
2023/09/01 02:35:23;0.00;0.00;0.62;0.00;0.00;0.62;3.00;1.67;;;27.10;26.70;;;;;;2263786;61;20438;-53
2023/09/01 02:38:08;0.00;0.00;0.62;0.00;0.00;0.62;2.50;1.73;;;27.00;26.70;;;;;;2264580;61;20962;-56
2023/09/01 02:40:53;0.00;0.00;0.62;0.00;0.00;0.62;2.43;1.60;;;27.10;26.80;;;;;;2264394;61;20893;-55
2023/09/01 02:43:37;0.00;0.00;0.62;0.00;0.00;0.62;2.73;1.70;;;27.00;26.70;;;;;;2264372;61;20430;-55
2023/09/01 02:46:24;0.00;0.00;0.62;0.00;0.00;0.62;1.90;1.50;;;27.00;26.70;;;;;;2264384;61;20364;-54
2023/09/01 02:49:10;0.00;0.00;0.62;0.00;0.00;0.62;2.00;1.30;;;27.00;26.70;;;;;;2263997;61;20437;-52
2023/09/01 02:51:56;0.00;0.00;0.62;0.00;0.00;0.62;2.40;1.77;;;27.00;26.70;;;;;;2264526;61;20396;-55
2023/09/01 02:54:41;0.00;0.00;0.62;0.00;0.00;0.62;1.90;1.40;;;27.00;26.70;;;;;;2263541;61;20839;-57
2023/09/01 02:57:26;0.00;0.00;0.62;0.00;0.00;0.62;2.30;1.67;;;27.00;26.70;;;;;;2264359;61;20816;-53
2023/09/01 03:00:17;0.00;0.00;0.62;0.00;0.00;0.62;2.60;1.80;;;27.00;26.70;;;;;;2264180;61;20460;-53
2023/09/01 03:03:06;0.00;0.00;0.62;0.00;0.00;0.62;4.57;1.67;;;27.00;26.70;;;;;;2263995;61;20932;-53
2023/09/01 03:05:51;0.00;0.00;0.62;0.00;0.00;0.62;2.27;1.23;;;27.00;26.70;;;;;;2264022;61;20499;-57
2023/09/01 03:08:37;0.00;0.00;0.62;0.00;0.00;0.62;2.40;1.70;;;27.00;26.70;;;;;;2263881;61;20395;-58
2023/09/01 03:11:21;0.00;0.00;0.62;0.00;0.00;0.62;2.50;2.00;;;27.00;26.70;;;;;;2264429;61;20364;-56
2023/09/01 03:14:06;0.00;0.00;0.62;0.00;0.00;0.62;2.00;1.37;;;27.00;26.70;;;;;;2264131;61;20410;-55
2023/09/01 03:16:50;0.00;0.00;0.62;0.00;0.00;0.62;2.57;1.60;;;27.00;26.70;;;;;;2263939;61;20395;-53
2023/09/01 03:19:36;0.00;0.00;0.62;0.00;0.00;0.62;3.00;1.60;;;27.00;26.70;;;;;;2263998;61;20356;-52
2023/09/01 03:22:22;0.00;0.00;0.62;0.00;0.00;0.62;1.90;1.50;;;27.00;26.70;;;;;;2264484;61;20790;-49
2023/09/01 03:25:09;0.00;0.00;0.62;0.00;0.00;0.62;2.10;1.60;;;27.00;27.30;;;;;;2263888;61;20434;-57
2023/09/01 03:27:54;0.00;0.00;0.62;0.00;0.00;0.62;2.00;1.60;;;27.00;26.70;;;;;;2263885;61;20367;-57
2023/09/01 03:30:38;0.00;0.00;0.62;0.00;0.00;0.62;2.10;1.57;;;27.00;26.70;;;;;;2263590;61;20399;-55
2023/09/01 03:33:23;0.00;0.00;0.62;0.00;0.00;0.62;2.57;1.70;;;27.00;26.70;;;;;;2263221;61;20368;-55
2023/09/01 03:36:09;0.00;0.00;0.62;0.00;0.00;0.62;2.57;1.40;;;27.00;26.80;;;;;;2263937;61;20371;-53
2023/09/01 03:38:54;0.00;0.00;0.62;0.00;0.00;0.62;2.70;2.00;;;26.90;26.70;;;;;;2264082;61;20372;-54
2023/09/01 03:41:39;0.00;0.00;0.62;0.00;0.00;0.62;3.30;1.53;;;26.90;26.70;;;;;;2263475;61;20368;-54
2023/09/01 03:44:23;0.00;0.00;0.62;0.00;0.00;0.62;2.40;1.90;;;26.90;26.70;;;;;;2263829;61;20383;-54
2023/09/01 03:47:09;0.00;0.00;0.62;0.00;0.00;0.62;3.30;1.60;;;26.90;26.70;;;;;;2263801;61;20359;-57
2023/09/01 03:49:54;0.00;0.00;0.62;0.00;0.00;0.62;1.90;1.43;;;26.90;26.70;;;;;;2264358;61;20778;-52
2023/09/01 03:52:40;0.00;0.00;0.62;0.00;0.00;0.62;2.03;1.40;;;26.90;26.70;;;;;;2264016;61;20368;-54
2023/09/01 03:55:25;0.00;0.00;0.62;0.00;0.00;0.62;2.70;1.67;;;26.90;26.70;;;;;;2264072;61;20396;-53
2023/09/01 03:58:09;0.00;0.00;0.62;0.00;0.00;0.62;2.33;1.40;;;26.90;26.70;;;;;;2264440;61;20399;-54
2023/09/01 04:00:54;0.00;0.00;0.62;0.00;0.00;0.62;2.87;1.70;;;26.90;26.70;;;;;;2265013;61;20414;-57
2023/09/01 04:03:39;0.00;0.00;0.62;0.00;0.00;0.62;2.30;1.63;;;26.90;26.70;;;;;;2264751;61;20399;-56
2023/09/01 04:06:23;0.00;0.00;0.62;0.00;0.00;0.62;2.53;1.70;;;26.90;26.70;;;;;;2264771;61;20341;-50
2023/09/01 04:09:11;0.00;0.00;0.62;0.00;0.00;0.62;2.33;1.37;;;26.90;26.70;;;;;;2264167;61;20375;-58
2023/09/01 04:11:56;0.00;0.00;0.62;0.00;0.00;0.62;2.30;1.70;;;26.90;26.80;;;;;;2264638;61;20372;-51
2023/09/01 04:14:40;0.00;0.00;0.62;0.00;0.00;0.62;3.07;2.00;;;26.80;26.70;;;;;;2265078;61;20391;-54
2023/09/01 04:17:26;0.00;0.00;0.62;0.00;0.00;0.62;2.03;1.70;;;26.90;26.70;;;;;;2265008;61;20367;-56
2023/09/01 04:20:11;0.00;0.00;0.62;0.00;0.00;0.62;3.00;1.63;;;26.80;26.70;;;;;;2265037;61;20464;-54
2023/09/01 04:22:56;0.00;0.00;0.62;0.00;0.00;0.62;2.83;1.93;;;26.80;26.70;;;;;;2264859;61;20355;-54
2023/09/01 04:25:43;0.00;0.00;0.62;0.00;0.00;0.62;2.87;1.83;;;26.80;26.70;;;;;;2264468;61;20383;-55
2023/09/01 04:28:28;0.00;0.00;0.62;0.00;0.00;0.62;3.07;2.00;;;26.80;26.70;;;;;;2264454;61;20368;-55
2023/09/01 04:31:16;0.00;0.00;0.62;0.00;0.00;0.62;2.43;1.67;;;26.80;26.70;;;;;;2264209;61;20463;-60
2023/09/01 04:34:02;0.00;0.00;0.62;0.00;0.00;0.62;2.87;1.67;;;26.80;26.70;;;;;;2264066;61;20921;-54
2023/09/01 04:36:50;0.00;0.00;0.62;0.00;0.00;0.62;2.63;1.97;;;26.80;26.70;;;;;;2264448;61;20367;-55
2023/09/01 04:39:34;0.00;0.00;0.62;0.00;0.00;0.62;3.30;2.00;;;26.80;26.70;;;;;;2264550;61;20782;-57
2023/09/01 04:42:20;0.00;0.00;0.62;0.00;0.00;0.62;2.73;1.50;;;26.80;26.70;;;;;;2264395;61;20367;-56
2023/09/01 04:45:07;0.00;0.00;0.62;0.00;0.00;0.62;3.40;1.93;;;26.80;26.70;;;;;;2264326;61;20530;-54
2023/09/01 04:47:52;0.00;0.00;0.62;0.00;0.00;0.62;2.03;1.67;;;26.80;26.70;;;;;;2264753;61;20467;-57
2023/09/01 04:50:37;0.00;0.00;0.62;0.00;0.00;0.62;2.80;1.80;;;26.80;26.70;;;;;;2264894;61;20817;-61
2023/09/01 04:53:22;0.00;0.00;0.62;0.00;0.00;0.62;2.60;2.10;;;26.80;26.70;;;;;;2263968;61;20364;-55
2023/09/01 04:56:09;0.00;0.00;0.62;0.00;0.00;0.62;2.80;2.00;;;26.80;26.70;;;;;;2264501;61;20364;-54
2023/09/01 04:58:55;0.00;0.00;0.62;0.00;0.00;0.62;2.60;2.00;;;26.80;26.70;;;;;;2264460;61;20364;-53
2023/09/01 05:01:40;0.00;0.00;0.62;0.00;0.00;0.62;2.43;1.57;;;26.80;26.70;;;;;;2264372;61;20368;-53
2023/09/01 05:04:25;0.00;0.00;0.62;0.00;0.00;0.62;3.50;2.17;;;26.70;26.70;;;;;;2264091;61;20399;-56
2023/09/01 05:07:09;0.00;0.00;0.62;0.00;0.00;0.62;2.73;1.63;;;26.70;26.70;;;;;;2264137;61;20498;-54
2023/09/01 05:09:55;0.00;0.00;0.62;0.00;0.00;0.62;2.53;1.70;;;26.80;26.80;;;;;;2264802;61;20379;-55
2023/09/01 05:12:40;0.00;0.00;0.62;0.00;0.00;0.62;2.70;2.10;;;26.70;26.70;;;;;;2264349;61;20356;-55
2023/09/01 05:15:26;0.00;0.00;0.62;0.00;0.00;0.62;3.20;2.03;;;26.70;26.70;;;;;;2263877;61;20518;-56
2023/09/01 05:18:11;0.00;0.00;0.62;0.00;0.00;0.62;2.27;2.00;;;26.70;26.70;;;;;;2264448;61;20349;-55
2023/09/01 05:20:55;0.00;0.00;0.62;0.00;0.00;0.62;3.00;2.00;;;26.70;26.70;;;;;;2264476;61;20411;-55
2023/09/01 05:23:40;0.00;0.00;0.62;0.00;0.00;0.62;3.10;1.97;;;26.70;26.70;;;;;;2263944;61;20913;-49
2023/09/01 05:26:24;0.00;0.00;0.62;0.00;0.00;0.62;2.50;1.70;;;26.70;26.70;;;;;;2264176;61;20364;-54
2023/09/01 05:29:09;0.00;0.00;0.62;0.00;0.00;0.62;3.63;2.30;;;26.70;26.70;;;;;;2264720;61;20913;-54
2023/09/01 05:31:55;0.00;0.00;0.62;0.00;0.00;0.62;3.80;2.17;;;26.70;26.70;;;;;;2264276;61;20368;-54
2023/09/01 05:34:40;0.00;0.00;0.62;0.00;0.00;0.62;3.10;2.10;;;26.70;26.70;;;;;;2264431;61;20865;-55
2023/09/01 05:37:25;0.00;0.00;0.62;0.00;0.00;0.62;3.50;2.23;;;26.70;26.70;;;;;;2264096;61;20364;-55
2023/09/01 05:40:11;0.00;0.00;0.62;0.00;0.00;0.62;3.80;2.20;;;26.70;26.70;;;;;;2271177;58;20368;-57
2023/09/01 05:42:56;0.00;0.00;0.62;0.00;0.00;0.62;3.00;2.23;;;26.70;26.70;;;;;;2264794;61;20402;-53
2023/09/01 05:45:41;0.00;0.00;0.62;0.00;0.00;0.62;2.33;1.93;;;26.70;26.70;;;;;;2264066;61;20430;-54
2023/09/01 05:48:27;0.00;0.00;0.62;0.00;0.00;0.62;2.30;1.90;;;26.70;26.80;;;;;;2264345;61;20372;-57
2023/09/01 05:51:12;0.00;0.00;0.62;0.00;0.00;0.62;2.40;2.20;;;26.70;26.80;;;;;;2264340;61;20379;-53
2023/09/01 05:53:56;0.00;0.00;0.62;0.00;0.00;0.62;2.50;2.00;;;26.70;26.80;;;;;;2264053;61;20396;-53
2023/09/01 05:56:41;0.00;0.00;0.62;0.00;0.00;0.62;2.80;1.90;;;26.70;26.80;;;;;;2264819;61;20367;-54
2023/09/01 05:59:26;0.00;0.00;0.62;0.00;0.00;0.62;3.20;2.20;;;26.70;26.80;;;;;;2264584;61;20388;-52
2023/09/01 06:02:10;0.00;0.00;0.62;0.00;0.00;0.62;4.00;2.30;;;26.70;26.80;;;;;;2264761;61;20360;-54
2023/09/01 06:04:56;0.00;0.00;0.62;0.00;0.00;0.62;2.30;1.93;;;26.70;26.80;;;;;;2264296;61;20384;-54
2023/09/01 06:07:40;0.00;0.00;0.62;0.00;0.00;0.62;2.83;1.87;;;26.70;26.80;;;;;;2264529;61;20386;-56
2023/09/01 06:10:25;0.00;0.00;0.62;0.00;0.00;0.62;2.80;2.40;;;26.70;26.80;;;;;;2264711;61;20427;-58
2023/09/01 06:13:10;0.00;0.00;0.62;0.00;0.00;0.62;2.70;2.10;;;26.70;26.80;;;;;;2264840;61;20439;-54
2023/09/01 06:15:54;0.00;0.00;0.62;0.00;0.00;0.62;2.47;2.27;;;26.70;26.80;;;;;;2264599;61;20790;-53
2023/09/01 06:18:38;0.00;0.00;0.62;0.00;0.00;0.62;2.20;1.60;;;26.70;26.80;;;;;;2264637;61;20368;-55
2023/09/01 06:21:24;0.00;0.00;0.62;0.00;0.00;0.62;3.93;2.53;;;26.70;26.80;;;;;;2264500;61;20776;-55
2023/09/01 06:24:09;0.00;0.00;0.62;0.00;0.00;0.62;3.10;1.93;;;26.70;26.80;;;;;;2264165;61;20379;-50
2023/09/01 06:26:54;0.00;0.00;0.62;0.00;0.00;0.62;2.30;1.90;;;26.70;26.80;;;;;;2264677;61;20916;-58
2023/09/01 06:29:39;0.00;0.00;0.62;0.00;0.00;0.62;3.17;2.33;;;26.70;26.90;;;;;;2264412;61;20411;-52
2023/09/01 06:32:23;0.00;0.00;0.62;0.00;0.00;0.62;5.00;2.40;;;26.70;26.80;;;;;;2264657;61;20852;-56
2023/09/01 06:35:08;0.00;0.00;0.62;0.00;0.00;0.62;2.77;2.07;;;26.70;26.80;;;;;;2264452;61;20475;-55
2023/09/01 06:37:54;0.00;0.00;0.62;0.00;0.00;0.62;2.80;1.90;;;26.70;26.90;;;;;;2264550;61;20375;-59
2023/09/01 06:40:39;0.00;0.00;0.62;0.00;0.00;0.62;2.90;2.20;;;26.70;26.90;;;;;;2264652;61;20380;-55
2023/09/01 06:43:23;0.00;0.00;0.62;0.00;0.00;0.62;2.77;1.77;;;26.70;26.90;;;;;;2264235;61;20360;-54
2023/09/01 06:46:08;0.00;0.00;0.62;0.00;0.00;0.62;2.93;2.17;;;26.70;26.90;;;;;;2264269;61;20368;-52
2023/09/01 06:48:52;0.00;0.00;0.62;0.00;0.00;0.62;4.40;2.47;;;26.70;26.90;;;;;;2264664;61;20438;-51
2023/09/01 06:51:37;0.00;0.00;0.62;0.00;0.00;0.62;2.80;2.27;;;26.70;26.90;;;;;;2264462;61;20383;-52
2023/09/01 06:54:23;0.00;0.00;0.62;0.00;0.00;0.62;2.60;1.90;;;26.70;26.90;;;;;;2264331;61;20376;-58
2023/09/01 06:57:07;0.00;0.00;0.62;0.00;0.00;0.62;3.80;2.43;;;26.70;26.90;;;;;;2264672;61;21005;-52
2023/09/01 06:59:52;0.00;0.00;0.62;0.00;0.00;0.62;2.53;1.97;;;26.70;26.90;;;;;;2264264;61;20411;-58
2023/09/01 07:02:37;0.00;0.00;0.62;0.00;0.00;0.62;3.97;2.77;;;26.70;26.90;;;;;;2264621;61;20780;-49
2023/09/01 07:05:21;0.00;0.00;0.62;0.00;0.00;0.62;2.70;2.00;;;26.70;27.00;;;;;;2264111;61;20987;-53
2023/09/01 07:08:12;0.00;0.00;0.62;0.00;0.00;0.62;4.07;2.33;;;26.70;27.00;;;;;;2264312;61;20340;-52
2023/09/01 07:11:01;0.00;0.00;0.62;0.00;0.00;0.62;3.47;2.23;;;26.70;27.00;;;;;;2264021;61;20792;-54
2023/09/01 07:13:49;0.00;0.00;0.62;0.00;0.00;0.62;3.10;2.40;;;26.70;27.00;;;;;;2263820;61;20770;-51
2023/09/01 07:16:34;0.00;0.00;0.62;0.00;0.00;0.62;3.00;2.60;;;26.70;27.00;;;;;;2263817;61;20426;-52
2023/09/01 07:19:18;0.00;0.00;0.62;0.00;0.00;0.62;3.03;2.57;;;26.70;27.00;;;;;;2264038;61;20356;-50
2023/09/01 07:22:04;0.00;0.00;0.62;0.00;0.00;0.62;3.83;2.70;;;26.70;27.00;;;;;;2263982;61;20383;-51
2023/09/01 07:24:49;0.00;0.00;0.62;0.00;0.00;0.62;4.03;2.57;;;26.70;27.00;;;;;;2264009;61;20383;-52
2023/09/01 07:27:35;0.00;0.00;0.62;0.00;0.00;0.62;3.10;2.80;;;26.70;27.00;;;;;;2264415;61;20364;-51
2023/09/01 07:30:20;0.00;0.00;0.62;0.00;0.00;0.62;3.10;2.40;;;26.70;27.00;;;;;;2264437;61;20384;-54
2023/09/01 07:33:04;0.00;0.00;0.62;0.00;0.00;0.62;4.20;2.70;;;26.70;27.10;;;;;;2264378;61;20400;-57
2023/09/01 07:35:51;0.00;0.00;0.62;0.00;0.00;0.62;3.80;2.30;;;26.70;27.10;;;;;;2264692;61;20441;-49
2023/09/01 07:38:35;0.00;0.00;0.62;0.00;0.00;0.62;5.33;2.97;;;26.70;27.10;;;;;;2265231;61;20780;-55
2023/09/01 07:41:20;0.00;0.00;0.62;0.00;0.00;0.62;2.90;2.23;;;26.70;27.10;;;;;;2265263;61;20910;-54
2023/09/01 07:44:06;0.00;0.00;0.62;0.00;0.00;0.62;5.57;3.17;;;26.70;27.10;;;;;;2264565;61;20917;-58
2023/09/01 07:46:51;0.00;0.00;0.62;0.00;0.00;0.62;3.37;2.33;;;26.70;27.10;;;;;;2265214;61;20372;-56
2023/09/01 07:49:35;0.00;0.00;0.62;0.00;0.00;0.62;2.37;2.17;;;26.70;27.10;;;;;;2264876;61;20395;-50
2023/09/01 07:52:20;0.00;0.00;0.62;0.00;0.00;0.62;3.60;2.30;;;26.70;27.20;;;;;;2265313;61;20375;-57
2023/09/01 07:55:05;0.00;0.00;0.62;0.00;0.00;0.62;3.50;2.40;;;26.70;27.20;;;;;;2264975;61;20422;-55
2023/09/01 07:57:50;0.00;0.00;0.62;0.00;0.00;0.62;6.20;3.17;;;26.70;27.20;;;;;;2264832;61;20367;-55
2023/09/01 08:00:37;0.00;0.00;0.62;0.00;0.00;0.62;3.23;2.50;;;26.70;27.20;;;;;;2264684;61;20363;-52
2023/09/01 08:03:22;0.00;0.00;0.62;0.00;0.00;0.62;3.67;2.50;;;26.70;27.30;;;;;;2265038;61;20368;-57
2023/09/01 08:06:06;0.00;0.00;0.62;0.00;0.00;0.62;3.63;2.87;;;26.70;27.30;;;;;;2264804;61;20392;-56
2023/09/01 08:08:51;0.00;0.00;0.62;0.00;0.00;0.62;2.80;2.50;;;26.70;27.30;;;;;;2265080;61;20364;-56
2023/09/01 08:11:36;0.00;0.00;0.62;0.00;0.00;0.62;2.80;2.30;;;26.60;27.20;;;;;;2264946;61;20463;-56
2023/09/01 08:14:20;0.00;0.00;0.62;0.00;0.00;0.62;2.83;2.30;;;26.60;27.20;;;;;;2264723;61;20445;-53
2023/09/01 08:17:06;0.00;0.00;0.62;0.00;0.00;0.62;3.77;2.40;;;26.60;27.30;;;;;;2265259;61;20944;-57
2023/09/01 08:19:50;0.00;0.00;0.62;0.00;0.00;0.62;3.53;2.47;;;26.70;27.40;;;;;;2264901;61;20387;-56
2023/09/01 08:22:35;0.00;0.00;0.62;0.00;0.00;0.62;3.43;2.53;;;26.70;27.40;;;;;;2265062;61;20364;-54
2023/09/01 08:25:21;0.00;0.00;0.62;0.00;0.00;0.62;3.30;3.00;;;26.70;27.40;;;;;;2264460;61;20396;-52
2023/09/01 08:28:07;0.00;0.00;0.62;0.00;0.00;0.62;4.60;3.00;;;26.70;27.40;;;;;;2264315;61;20367;-52
2023/09/01 08:30:51;0.00;0.00;0.62;0.00;0.00;0.62;3.90;3.13;;;26.70;27.40;;;;;;2264863;61;20419;-57
2023/09/01 08:33:37;0.00;0.00;0.62;0.00;0.00;0.62;3.47;2.90;;;26.70;27.50;;;;;;2264600;61;20948;-55
2023/09/01 08:36:22;0.00;0.00;0.62;0.00;0.00;0.62;3.67;2.87;;;26.70;27.50;;;;;;2264445;61;20414;-55
2023/09/01 08:39:07;0.00;0.00;0.62;0.00;0.00;0.62;4.37;2.83;;;26.70;27.50;;;;;;2264773;61;20364;-51
2023/09/01 08:41:53;0.00;0.00;0.62;0.00;0.00;0.62;3.90;3.23;;;26.70;27.50;;;;;;2264062;61;20368;-51
2023/09/01 08:44:40;0.00;0.00;0.62;0.00;0.00;0.62;4.80;3.40;;;26.70;27.50;;;;;;2264692;61;20479;-56
2023/09/01 08:47:29;0.00;0.00;0.62;0.00;0.00;0.62;4.10;3.40;;;26.70;27.50;;;;;;2264663;61;20502;-52
2023/09/01 08:50:19;0.00;0.00;0.62;0.00;0.00;0.62;3.80;3.10;;;26.70;27.50;;;;;;2264521;61;20395;-54
2023/09/01 08:53:05;0.00;0.00;0.62;0.00;0.00;0.62;4.03;3.20;;;26.70;27.50;;;;;;2264864;61;20503;-55
2023/09/01 08:55:50;0.00;0.00;0.62;0.00;0.00;0.62;3.63;2.70;;;26.70;27.60;;;;;;2264530;61;20375;-54
2023/09/01 08:58:36;0.00;0.00;0.62;0.00;0.00;0.62;4.57;3.30;;;26.70;27.60;;;;;;2264535;61;20368;-55
2023/09/01 09:01:22;0.00;0.00;0.62;0.00;0.00;0.62;4.23;3.10;;;26.70;27.60;;;;;;2264871;61;20398;-53
2023/09/01 09:04:07;0.00;0.00;0.62;0.00;0.00;0.62;4.50;3.80;;;26.70;27.60;;;;;;2264501;61;20384;-51
2023/09/01 09:06:53;0.00;0.00;0.62;0.00;0.00;0.62;3.77;3.00;;;26.70;27.60;;;;;;2264797;61;20440;-56
2023/09/01 09:09:50;0.00;0.00;0.62;0.00;0.00;0.62;4.20;3.20;;;26.70;27.70;;;;;;2264716;61;20818;-56
2023/09/01 09:12:37;0.00;0.00;0.62;0.00;0.00;0.62;2.80;2.30;;;26.70;27.70;;;;;;2266640;61;20400;-57
2023/09/01 09:15:21;0.00;0.00;0.62;0.00;0.00;0.62;3.73;3.00;;;26.70;27.70;;;;;;2266859;61;20383;-58
2023/09/01 09:18:06;0.00;0.00;0.62;0.00;0.00;0.62;3.97;3.10;;;26.70;27.70;;;;;;2267134;61;20440;-56
2023/09/01 09:20:51;0.00;0.00;0.62;0.00;0.00;0.62;3.70;2.97;;;26.70;27.70;;;;;;2266951;61;20359;-57
2023/09/01 09:23:45;0.00;0.00;0.62;0.00;0.00;0.62;5.73;3.07;;;26.70;27.70;;;;;;2266505;61;21110;-56
2023/09/01 09:26:32;0.00;0.00;0.62;0.00;0.00;0.62;3.37;2.90;;;26.70;27.80;;;;;;2266919;61;20404;-56
2023/09/01 09:29:17;0.00;0.00;0.62;0.00;0.00;0.62;3.30;2.73;;;26.70;27.80;;;;;;2266956;61;20435;-58
2023/09/01 09:32:16;0.00;0.00;0.62;0.00;0.00;0.62;4.00;2.73;;;26.80;27.90;;;;;;2266981;61;20376;-56
2023/09/01 09:35:09;0.00;0.00;0.62;0.00;0.00;0.62;5.33;3.03;;;26.80;27.90;;;;;;2266449;61;20464;-58
2023/09/01 09:38:00;0.00;0.00;0.62;0.00;0.00;0.62;3.17;2.37;;;26.80;27.90;;;;;;2266835;61;20434;-56
2023/09/01 09:40:57;0.00;0.00;0.62;0.00;0.00;0.62;3.63;2.70;;;26.80;27.90;;;;;;2266955;61;20486;-61
2023/09/01 09:43:44;0.00;0.00;0.62;0.00;0.00;0.62;4.10;2.83;;;26.80;27.90;;;;;;2266549;61;21013;-58
2023/09/01 09:46:40;0.00;0.00;0.62;0.00;0.00;0.62;3.30;2.33;;;26.80;27.90;;;;;;2266685;61;20364;-58
2023/09/01 09:49:26;0.00;0.00;0.62;0.00;0.00;0.62;3.10;2.60;;;26.80;28.00;;;;;;2266443;61;20862;-54
2023/09/01 09:52:13;0.00;0.00;0.62;0.00;0.00;0.62;2.90;2.60;;;26.80;28.00;;;;;;2267337;61;20429;-54
2023/09/01 09:55:03;0.00;0.00;0.62;0.00;0.00;0.62;2.60;2.30;;;26.90;28.00;;;;;;2267072;61;20387;-58
2023/09/01 09:57:50;0.00;0.00;0.62;0.00;0.00;0.62;5.33;2.40;;;26.90;28.00;;;;;;2266814;61;20355;-57
2023/09/01 10:00:42;0.00;0.00;0.62;0.00;0.00;0.62;4.13;2.37;;;26.80;28.00;;;;;;2266899;61;20388;-54
2023/09/01 10:03:29;0.00;0.00;0.62;0.00;0.00;0.62;2.90;2.37;;;26.90;28.10;;;;;;2266682;61;20382;-57
2023/09/01 10:06:17;0.00;0.00;0.62;0.00;0.00;0.62;3.27;2.43;;;26.90;28.10;;;;;;2267266;61;20402;-54
2023/09/01 10:09:04;0.00;0.00;0.62;0.00;0.00;0.62;3.10;2.40;;;26.90;28.10;;;;;;2267001;61;20423;-60
2023/09/01 10:11:49;0.00;0.00;0.62;0.00;0.00;0.62;2.83;2.37;;;26.90;28.10;;;;;;2266180;61;20363;-57
2023/09/01 10:14:39;0.00;0.00;0.62;0.00;0.00;0.62;2.70;2.20;;;27.00;28.20;;;;;;2266661;61;20376;-50
2023/09/01 10:17:25;0.00;0.00;0.62;0.00;0.00;0.62;3.17;2.23;;;27.00;28.20;;;;;;2266798;61;20368;-59
2023/09/01 10:20:15;0.00;0.00;0.62;0.00;0.00;0.62;3.10;2.60;;;27.00;28.20;;;;;;2267154;61;20382;-55
2023/09/01 10:23:02;0.00;0.00;0.62;0.00;0.00;0.62;2.40;1.73;;;27.00;28.20;;;;;;2266966;61;20360;-57
2023/09/01 10:26:24;0.00;0.00;0.62;0.00;0.00;0.62;6.10;2.50;;;27.00;28.20;;;;;;2267034;61;20412;-54
2023/09/01 10:29:10;0.00;0.00;0.62;0.00;0.00;0.62;2.33;1.67;;;27.00;28.20;;;;;;2266812;61;20456;-56
2023/09/01 10:32:14;0.00;0.00;0.62;0.00;0.00;0.62;2.40;1.60;;;27.00;28.20;;;;;;2267013;61;20368;-56
2023/09/01 10:35:00;0.00;0.00;0.62;0.00;0.00;0.62;3.07;2.27;;;27.00;28.20;;;;;;2266160;61;20412;-51
2023/09/01 10:38:08;0.00;0.00;0.62;0.00;0.00;0.62;2.33;1.73;;;27.00;28.20;;;;;;2266584;61;20386;-58
2023/09/01 10:40:55;0.00;0.00;0.62;0.00;0.00;0.62;2.87;2.20;;;27.10;28.30;;;;;;2262354;61;20452;-58
2023/09/01 10:43:53;0.00;0.00;0.62;0.00;0.00;0.62;3.23;2.00;;;27.10;28.30;;;;;;2260985;61;20408;-55
2023/09/01 10:46:37;0.00;0.00;0.62;0.00;0.00;0.62;2.93;2.33;;;27.10;28.40;;;;;;2261579;61;20369;-58
2023/09/01 10:49:56;0.00;0.00;0.62;0.00;0.00;0.62;2.13;1.90;;;27.10;28.30;;;;;;2261527;61;20424;-56
2023/09/01 10:52:42;0.00;0.00;0.62;0.00;0.00;0.62;2.00;1.60;;;27.10;28.30;;;;;;2262015;61;20441;-57
2023/09/01 10:55:28;0.00;0.00;0.62;0.00;0.00;0.62;2.27;1.73;;;27.20;28.40;;;;;;2262217;61;20969;-56
2023/09/01 10:58:13;0.00;0.00;0.62;0.00;0.00;0.62;2.40;1.60;;;27.20;28.40;;;;;;2262743;61;20376;-55